Time;durP1;ratioP1;P1;durP2;ratioP2;P2;SDS_P1;SDS_P2;PMS_P1;PMS_P2;Temp;Humidity;BMP_temperature;BMP_pressure;BME280_temperature;BME280_humidity;BME280_pressure;Samples;Min_cycle;Max_cycle;Signal;HPM_P1;HPM_P2
2022/12/31 00:01:06;;;;;;;;;;;;;;;9.17;73.24;102586.00;5105512;28;19916;-83
2022/12/31 00:03:32;;;;;;;;;;;;;;;9.16;73.11;102581.59;5078693;28;19976;-85
2022/12/31 00:05:57;;;;;;;;;;;;;;;9.17;73.32;102590.31;5080561;28;19950;-83
2022/12/31 00:08:23;;;;;;;;;;;;;;;9.17;73.03;102583.41;5090040;28;19920;-83
2022/12/31 00:10:48;;;;;;;;;;;;;;;9.17;72.95;102585.09;5092190;28;19921;-83
2022/12/31 00:13:13;;;;;;;;;;;;;;;9.19;72.90;102591.38;5059431;28;20302;-83
2022/12/31 00:15:39;;;;;;;;;;;;;;;9.16;72.99;102592.03;5059030;28;20309;-82
2022/12/31 00:18:05;;;;;;;;;;;;;;;9.16;73.26;102597.22;5087397;28;19932;-83
2022/12/31 00:20:30;;;;;;;;;;;;;;;9.15;73.23;102592.78;5085900;28;20360;-83
2022/12/31 00:22:56;;;;;;;;;;;;;;;9.17;73.07;102595.53;5059808;28;19984;-82
2022/12/31 00:25:21;;;;;;;;;;;;;;;9.19;73.04;102593.06;5058004;28;19921;-82
2022/12/31 00:27:47;;;;;;;;;;;;;;;9.15;73.42;102590.19;5042938;28;19920;-83
2022/12/31 00:30:12;;;;;;;;;;;;;;;9.14;73.01;102595.25;5056919;28;19925;-82
2022/12/31 00:32:38;;;;;;;;;;;;;;;9.14;73.17;102600.44;5065844;28;19916;-82
2022/12/31 00:35:03;;;;;;;;;;;;;;;9.13;73.15;102590.81;5089371;28;19955;-83
2022/12/31 00:37:29;;;;;;;;;;;;;;;9.14;73.20;102597.84;5052141;28;20377;-83
2022/12/31 00:39:54;;;;;;;;;;;;;;;9.13;73.19;102598.63;5059891;28;19928;-83
2022/12/31 00:42:20;;;;;;;;;;;;;;;9.13;73.01;102609.06;5057695;28;20412;-83
2022/12/31 00:44:45;;;;;;;;;;;;;;;9.13;73.41;102616.88;5060751;28;19924;-83
2022/12/31 00:47:10;;;;;;;;;;;;;;;9.11;73.29;102616.75;5064965;28;20398;-83
2022/12/31 00:49:36;;;;;;;;;;;;;;;9.12;73.06;102617.66;5059482;28;19916;-83
2022/12/31 00:52:01;;;;;;;;;;;;;;;9.13;73.20;102619.50;5058510;28;19921;-83
2022/12/31 00:54:27;;;;;;;;;;;;;;;9.12;73.14;102618.59;5064264;28;20603;-83
2022/12/31 00:56:52;;;;;;;;;;;;;;;9.11;72.89;102621.03;5058968;28;19924;-82
2022/12/31 00:59:17;;;;;;;;;;;;;;;9.12;73.23;102622.84;5055806;28;20417;-83
2022/12/31 01:01:43;;;;;;;;;;;;;;;9.10;73.25;102621.81;5058747;28;19964;-83
2022/12/31 01:04:12;;;;;;;;;;;;;;;9.12;73.04;102620.25;5063924;28;20397;-82
2022/12/31 01:06:38;;;;;;;;;;;;;;;9.10;73.08;102619.19;5090868;28;19920;-82
2022/12/31 01:09:04;;;;;;;;;;;;;;;9.11;73.07;102623.66;5060119;28;20428;-83
2022/12/31 01:11:29;;;;;;;;;;;;;;;9.10;73.20;102621.81;5055980;28;19920;-82
2022/12/31 01:13:55;;;;;;;;;;;;;;;9.08;73.04;102616.47;5062629;28;19921;-83
2022/12/31 01:16:24;;;;;;;;;;;;;;;9.09;73.01;102620.00;5066622;28;19950;-82
2022/12/31 01:18:50;;;;;;;;;;;;;;;9.09;73.00;102620.91;5102920;28;19924;-82
2022/12/31 01:21:15;;;;;;;;;;;;;;;9.09;73.02;102620.91;5050627;28;20072;-82
2022/12/31 01:23:41;;;;;;;;;;;;;;;9.08;73.27;102612.94;5045740;28;19925;-82
2022/12/31 01:26:07;;;;;;;;;;;;;;;9.07;73.20;102614.63;5065418;28;19920;-82
2022/12/31 01:28:32;;;;;;;;;;;;;;;9.10;73.24;102617.53;5058276;28;19927;-83
2022/12/31 01:30:58;;;;;;;;;;;;;;;9.10;73.15;102616.59;5050168;28;19921;-82
2022/12/31 01:33:23;;;;;;;;;;;;;;;9.08;73.30;102615.53;5088600;28;19924;-82
2022/12/31 01:35:49;;;;;;;;;;;;;;;9.09;73.27;102614.78;5067515;28;19916;-83
2022/12/31 01:38:14;;;;;;;;;;;;;;;9.07;73.08;102617.25;5054697;28;20316;-83
2022/12/31 01:40:40;;;;;;;;;;;;;;;9.06;73.31;102617.09;5057867;28;19923;-82
2022/12/31 01:43:16;;;;;;;;;;;;;;;9.06;73.09;102618.03;5089298;28;19920;-83
2022/12/31 01:45:42;;;;;;;;;;;;;;;9.07;73.32;102617.25;5085044;28;20010;-82
2022/12/31 01:48:07;;;;;;;;;;;;;;;9.05;73.00;102620.50;5087738;28;19920;-82
2022/12/31 01:50:33;;;;;;;;;;;;;;;9.04;72.99;102626.47;5100883;28;19923;-82
2022/12/31 01:52:59;;;;;;;;;;;;;;;9.05;73.06;102623.09;5066443;28;19920;-82
2022/12/31 01:55:25;;;;;;;;;;;;;;;9.02;73.22;102617.63;5082940;28;19993;-82
2022/12/31 01:57:51;;;;;;;;;;;;;;;9.07;73.13;102622.44;5060486;28;20356;-83
2022/12/31 02:00:18;;;;;;;;;;;;;;;9.05;73.06;102620.50;5068655;28;19923;-82
2022/12/31 02:02:43;;;;;;;;;;;;;;;9.04;73.05;102622.19;5069850;28;19917;-82
2022/12/31 02:05:15;;;;;;;;;;;;;;;9.04;73.21;102618.66;5100679;28;19923;-82
2022/12/31 02:07:40;;;;;;;;;;;;;;;9.05;73.18;102621.41;5101656;28;19932;-82
2022/12/31 02:10:06;;;;;;;;;;;;;;;9.04;72.98;102618.66;5069846;28;20440;-83
2022/12/31 02:12:31;;;;;;;;;;;;;;;9.04;73.21;102626.47;5062074;28;19940;-83
2022/12/31 02:14:57;;;;;;;;;;;;;;;9.02;73.12;102626.34;5068276;28;20499;-82
2022/12/31 02:17:33;;;;;;;;;;;;;;;9.00;72.96;102622.69;5103991;28;20278;-82
2022/12/31 02:20:11;;;;;;;;;;;;;;;9.01;73.21;102628.81;5102682;28;19920;-83
2022/12/31 02:22:48;;;;;;;;;;;;;;;9.04;73.13;102631.69;5069207;28;19924;-83
2022/12/31 02:25:31;;;;;;;;;;;;;;;9.01;73.12;102631.41;5069493;28;20453;-82
2022/12/31 02:27:59;;;;;;;;;;;;;;;9.02;73.16;102631.56;5101975;28;20036;-82
2022/12/31 02:30:24;;;;;;;;;;;;;;;8.99;73.43;102633.88;5062615;28;20402;-82
2022/12/31 02:32:53;;;;;;;;;;;;;;;8.99;73.15;102636.47;5106088;28;19916;-82
2022/12/31 02:35:21;;;;;;;;;;;;;;;9.02;73.26;102635.88;5106720;28;20003;-83
2022/12/31 02:37:47;;;;;;;;;;;;;;;8.96;73.37;102633.63;5080943;28;19923;-82
2022/12/31 02:40:13;;;;;;;;;;;;;;;8.99;73.04;102640.78;5107831;28;20416;-83
2022/12/31 02:42:39;;;;;;;;;;;;;;;9.00;73.19;102634.81;5075024;28;19923;-83
2022/12/31 02:45:05;;;;;;;;;;;;;;;8.97;73.07;102625.00;5107356;28;19980;-83
2022/12/31 02:47:30;;;;;;;;;;;;;;;8.93;73.34;102629.06;5097008;28;19917;-83
2022/12/31 02:50:10;;;;;;;;;;;;;;;8.96;73.15;102625.78;5061019;28;19927;-83
2022/12/31 02:52:35;;;;;;;;;;;;;;;8.95;73.26;102631.75;5107459;28;20381;-83
2022/12/31 02:55:19;;;;;;;;;;;;;;;8.98;73.13;102626.84;5074815;28;19916;-83
2022/12/31 02:58:06;;;;;;;;;;;;;;;8.95;73.29;102629.16;5082252;28;19955;-83
2022/12/31 03:03:29;;;;;;;;;;;;;;;8.95;73.19;102622.28;5090556;28;19916;-83
2022/12/31 03:05:55;;;;;;;;;;;;;;;8.94;72.99;102625.66;5098388;28;19922;-83
2022/12/31 03:08:21;;;;;;;;;;;;;;;8.95;72.87;102627.50;5074237;28;20390;-83
2022/12/31 03:10:47;;;;;;;;;;;;;;;8.93;73.05;102628.09;5107403;28;19923;-83
2022/12/31 03:13:12;;;;;;;;;;;;;;;8.89;73.24;102619.13;5094406;28;20387;-83
2022/12/31 03:15:37;;;;;;;;;;;;;;;8.90;73.07;102620.94;5107118;28;20380;-83
2022/12/31 03:18:06;;;;;;;;;;;;;;;8.92;73.00;102623.69;5074458;28;19939;-83
2022/12/31 03:23:20;;;;;;;;;;;;;;;8.92;72.90;102624.59;5064655;28;20008;-83
2022/12/31 03:25:45;;;;;;;;;;;;;;;8.92;73.12;102632.41;5104712;28;19986;-83
2022/12/31 03:28:15;;;;;;;;;;;;;;;8.89;72.98;102634.75;5071544;28;19924;-83
2022/12/31 03:30:43;;;;;;;;;;;;;;;8.91;73.08;102632.25;5106185;28;19920;-82
2022/12/31 03:33:08;;;;;;;;;;;;;;;8.89;73.30;102633.81;5073185;28;19940;-83
2022/12/31 03:35:34;;;;;;;;;;;;;;;8.90;73.28;102638.25;5105247;28;20386;-83
2022/12/31 03:38:00;;;;;;;;;;;;;;;8.88;73.08;102640.72;5105218;28;19921;-83
2022/12/31 03:40:26;;;;;;;;;;;;;;;8.86;72.97;102638.75;5057887;28;19921;-82
2022/12/31 03:42:51;;;;;;;;;;;;;;;8.87;73.06;102640.56;5104984;28;20442;-82
2022/12/31 03:45:17;;;;;;;;;;;;;;;8.89;73.21;102637.38;5104649;28;19920;-82
2022/12/31 03:47:42;;;;;;;;;;;;;;;8.86;73.03;102634.47;5072618;28;20402;-82
2022/12/31 03:50:09;;;;;;;;;;;;;;;8.89;73.21;102639.03;5073576;28;20062;-83
2022/12/31 03:52:34;;;;;;;;;;;;;;;8.87;73.11;102633.69;5074364;28;19920;-82
2022/12/31 03:55:01;;;;;;;;;;;;;;;8.86;73.06;102629.25;5106306;28;20479;-82
2022/12/31 03:57:26;;;;;;;;;;;;;;;8.87;72.98;102636.31;5069476;28;19922;-82
2022/12/31 03:59:51;;;;;;;;;;;;;;;8.86;73.16;102638.75;5072554;28;20011;-84
2022/12/31 04:02:17;;;;;;;;;;;;;;;8.86;72.98;102646.56;5105947;28;19977;-83
2022/12/31 04:04:42;;;;;;;;;;;;;;;8.87;73.00;102648.38;5105527;28;19966;-83
2022/12/31 04:07:08;;;;;;;;;;;;;;;8.88;73.03;102648.53;5073050;28;20026;-83
2022/12/31 04:09:33;;;;;;;;;;;;;;;8.87;73.02;102653.59;5072531;28;20408;-84
2022/12/31 04:11:58;;;;;;;;;;;;;;;8.89;72.84;102654.66;5063855;28;20437;-84
2022/12/31 04:14:24;;;;;;;;;;;;;;;8.83;72.92;102646.31;5059325;28;20424;-84
2022/12/31 04:16:49;;;;;;;;;;;;;;;8.88;72.67;102655.44;5104675;28;19975;-84
2022/12/31 04:19:15;;;;;;;;;;;;;;;8.88;72.83;102655.44;5087021;28;20325;-84
2022/12/31 04:21:40;;;;;;;;;;;;;;;8.87;72.88;102662.34;5104930;28;20421;-84
2022/12/31 04:24:06;;;;;;;;;;;;;;;8.87;72.99;102662.34;5072331;28;20302;-84
2022/12/31 04:26:31;;;;;;;;;;;;;;;8.84;72.70;102662.06;5072734;28;20279;-85
2022/12/31 04:28:56;;;;;;;;;;;;;;;8.83;73.19;102660.25;5071460;28;19924;-85
2022/12/31 04:31:22;;;;;;;;;;;;;;;8.84;73.00;102668.97;5092135;28;19916;-84
2022/12/31 04:33:47;;;;;;;;;;;;;;;8.80;72.92;102667.75;5104933;28;20077;-83
2022/12/31 04:36:13;;;;;;;;;;;;;;;8.82;72.98;102675.72;5072277;28;19924;-83
2022/12/31 04:38:38;;;;;;;;;;;;;;;8.82;72.83;102673.13;5071657;28;20362;-82
2022/12/31 04:41:16;;;;;;;;;;;;;;;8.82;73.06;102673.13;5072307;28;20397;-81
2022/12/31 04:43:42;;;;;;;;;;;;;;;8.83;72.83;102680.19;5072153;28;19913;-81
2022/12/31 04:46:07;;;;;;;;;;;;;;;8.82;72.79;102683.53;5071404;28;19916;-83
2022/12/31 04:48:33;;;;;;;;;;;;;;;8.79;73.12;102683.28;5099024;28;20162;-82
2022/12/31 04:50:58;;;;;;;;;;;;;;;8.81;73.06;102687.84;5070883;28;20369;-82
2022/12/31 04:53:24;;;;;;;;;;;;;;;8.77;73.21;102689.25;5103586;28;19954;-82
2022/12/31 04:55:49;;;;;;;;;;;;;;;8.79;73.00;102691.09;5086114;28;19916;-82
2022/12/31 04:58:15;;;;;;;;;;;;;;;8.76;73.18;102694.31;5097643;28;19921;-82
2022/12/31 05:00:41;;;;;;;;;;;;;;;8.78;73.07;102692.75;5104467;28;20617;-82
2022/12/31 05:03:06;;;;;;;;;;;;;;;8.75;73.15;102697.69;5072271;28;20538;-83
2022/12/31 05:05:31;;;;;;;;;;;;;;;8.73;73.15;102686.22;5096838;28;19917;-82
2022/12/31 05:07:57;;;;;;;;;;;;;;;8.74;73.12;102694.19;5070707;28;20566;-82
2022/12/31 05:10:22;;;;;;;;;;;;;;;8.77;73.01;102689.25;5104854;28;20401;-82
2022/12/31 05:12:48;;;;;;;;;;;;;;;8.73;72.81;102694.94;5068869;28;19935;-82
2022/12/31 05:15:13;;;;;;;;;;;;;;;8.74;72.92;102695.84;5072211;28;20409;-81
2022/12/31 05:17:38;;;;;;;;;;;;;;;8.75;73.06;102696.00;5071788;28;19912;-82
2022/12/31 05:20:04;;;;;;;;;;;;;;;8.78;72.74;102705.78;5071949;28;19943;-82
2022/12/31 05:22:30;;;;;;;;;;;;;;;8.75;73.06;102708.13;5066017;28;20404;-83
2022/12/31 05:24:58;;;;;;;;;;;;;;;8.72;73.16;102706.16;5072098;28;19921;-83
2022/12/31 05:27:23;;;;;;;;;;;;;;;8.72;73.17;102708.75;5071660;28;19928;-83
2022/12/31 05:29:50;;;;;;;;;;;;;;;8.74;72.88;102708.88;5097335;28;19920;-82
2022/12/31 05:32:17;;;;;;;;;;;;;;;8.75;73.13;102713.31;5070702;28;20217;-82
2022/12/31 05:34:42;;;;;;;;;;;;;;;8.70;72.90;102709.38;5072012;28;19916;-83
2022/12/31 05:37:08;;;;;;;;;;;;;;;8.69;73.06;102713.66;5104661;28;19939;-82
2022/12/31 05:39:33;;;;;;;;;;;;;;;8.70;72.98;102719.78;5104230;28;19916;-82
2022/12/31 05:41:59;;;;;;;;;;;;;;;8.71;72.93;102719.03;5103960;28;20640;-82
2022/12/31 05:44:24;;;;;;;;;;;;;;;8.68;73.06;102718.75;5075865;28;20302;-82
2022/12/31 05:46:49;;;;;;;;;;;;;;;8.68;73.14;102717.06;5093943;28;20467;-82
2022/12/31 05:49:15;;;;;;;;;;;;;;;8.69;73.00;102717.97;5071786;28;19923;-83
2022/12/31 05:51:40;;;;;;;;;;;;;;;8.69;73.03;102712.75;5071316;28;19945;-83
2022/12/31 05:54:06;;;;;;;;;;;;;;;8.67;73.08;102723.03;5071575;28;19917;-83
2022/12/31 05:56:31;;;;;;;;;;;;;;;8.69;72.85;102731.00;5062388;28;20390;-83
2022/12/31 05:58:57;;;;;;;;;;;;;;;8.69;72.75;102721.47;5045007;28;19917;-83
2022/12/31 06:01:22;;;;;;;;;;;;;;;8.67;72.92;102736.06;5094105;28;20375;-83
2022/12/31 06:03:47;;;;;;;;;;;;;;;8.69;72.96;102737.09;5070507;28;19971;-83
2022/12/31 06:06:13;;;;;;;;;;;;;;;8.65;72.93;102736.69;5071220;28;19960;-83
2022/12/31 06:08:38;;;;;;;;;;;;;;;8.67;73.04;102736.06;5065622;28;19964;-83
2022/12/31 06:11:04;;;;;;;;;;;;;;;8.67;72.86;102742.97;5071545;28;20408;-83
2022/12/31 06:13:29;;;;;;;;;;;;;;;8.66;73.03;102736.84;5104213;28;20430;-83
2022/12/31 06:15:54;;;;;;;;;;;;;;;8.68;73.03;102737.00;5103987;28;20002;-83
2022/12/31 06:18:20;;;;;;;;;;;;;;;8.70;72.79;102745.81;5104166;28;19986;-83
2022/12/31 06:20:45;;;;;;;;;;;;;;;8.68;72.87;102742.19;5071514;28;19923;-82
2022/12/31 06:23:11;;;;;;;;;;;;;;;8.64;72.93;102742.69;5067548;28;19924;-81
2022/12/31 06:25:36;;;;;;;;;;;;;;;8.66;72.84;102748.94;5071234;28;20364;-83
2022/12/31 06:28:02;;;;;;;;;;;;;;;8.64;72.92;102751.41;5091021;28;20402;-83
2022/12/31 06:30:28;;;;;;;;;;;;;;;8.68;72.76;102757.81;5071458;28;20301;-82
2022/12/31 06:32:54;;;;;;;;;;;;;;;8.66;72.85;102761.97;5063017;28;19913;-83
2022/12/31 06:35:19;;;;;;;;;;;;;;;8.67;72.76;102766.41;5088057;28;20330;-82
2022/12/31 06:37:45;;;;;;;;;;;;;;;8.61;72.92;102769.34;5079495;28;20417;-83
2022/12/31 06:40:10;;;;;;;;;;;;;;;8.64;72.90;102774.84;5059162;28;20001;-82
2022/12/31 06:42:36;;;;;;;;;;;;;;;8.63;72.79;102772.09;5069065;28;20013;-82
2022/12/31 06:45:01;;;;;;;;;;;;;;;8.62;72.90;102773.78;5069390;28;19924;-81
2022/12/31 06:47:26;;;;;;;;;;;;;;;8.62;72.74;102779.00;5069069;28;20286;-82
2022/12/31 06:49:52;;;;;;;;;;;;;;;8.62;72.76;102775.47;5067036;28;20454;-82
2022/12/31 06:52:17;;;;;;;;;;;;;;;8.62;72.88;102779.00;5090587;28;20382;-82
2022/12/31 06:54:43;;;;;;;;;;;;;;;8.59;72.92;102769.97;5066665;28;19943;-82
2022/12/31 06:57:08;;;;;;;;;;;;;;;8.58;73.03;102769.06;5061327;28;19923;-82
2022/12/31 06:59:34;;;;;;;;;;;;;;;8.60;72.90;102770.13;5068524;28;20424;-85
2022/12/31 07:01:59;;;;;;;;;;;;;;;8.60;72.88;102774.41;5069025;28;19974;-82
2022/12/31 07:04:25;;;;;;;;;;;;;;;8.58;72.72;102774.25;5070052;28;20511;-82
2022/12/31 07:06:51;;;;;;;;;;;;;;;8.56;72.89;102783.63;5058599;28;19923;-82
2022/12/31 07:09:19;;;;;;;;;;;;;;;8.60;72.64;102780.53;5070422;28;20313;-82
2022/12/31 07:12:03;;;;;;;;;;;;;;;8.61;72.92;102790.16;5059948;28;20014;-82
2022/12/31 07:14:32;;;;;;;;;;;;;;;8.57;72.76;102790.66;5064507;28;19921;-81
2022/12/31 07:16:58;;;;;;;;;;;;;;;8.60;72.82;102798.78;5071822;28;19917;-82
2022/12/31 07:19:35;;;;;;;;;;;;;;;8.62;72.87;102804.13;5073013;28;20000;-82
2022/12/31 07:22:01;;;;;;;;;;;;;;;8.55;72.87;102803.53;5072658;28;19921;-82
2022/12/31 07:24:26;;;;;;;;;;;;;;;8.55;72.97;102802.59;5059178;28;19916;-82
2022/12/31 07:26:52;;;;;;;;;;;;;;;8.58;73.10;102805.53;5059087;28;20377;-82
2022/12/31 07:29:23;;;;;;;;;;;;;;;8.59;72.82;102801.22;5070984;28;19975;-82
2022/12/31 07:31:52;;;;;;;;;;;;;;;8.58;72.87;102802.91;5069330;28;19920;-82
2022/12/31 07:34:37;;;;;;;;;;;;;;;8.61;72.75;102807.50;5066058;28;19967;-82
2022/12/31 07:37:06;;;;;;;;;;;;;;;8.61;72.77;102815.31;5056184;28;19952;-83
2022/12/31 07:39:38;;;;;;;;;;;;;;;8.66;72.71;102806.25;5058643;28;19920;-82
2022/12/31 07:42:10;;;;;;;;;;;;;;;8.63;72.77;102812.06;5062638;28;19978;-82
2022/12/31 07:44:51;;;;;;;;;;;;;;;8.56;72.91;102804.47;5090632;28;19923;-82
2022/12/31 07:47:19;;;;;;;;;;;;;;;8.58;72.87;102810.72;5090244;28;19920;-82
2022/12/31 07:49:45;;;;;;;;;;;;;;;8.58;73.01;102807.22;5062940;28;20489;-82
2022/12/31 07:52:10;;;;;;;;;;;;;;;8.62;72.77;102814.53;5063185;28;20027;-81
2022/12/31 07:54:37;;;;;;;;;;;;;;;8.65;72.75;102820.03;5049244;28;19974;-83
2022/12/31 07:57:03;;;;;;;;;;;;;;;8.59;72.98;102814.25;5069758;28;19951;-83
2022/12/31 07:59:41;;;;;;;;;;;;;;;8.61;72.76;102824.03;5051500;28;19971;-82
2022/12/31 08:02:10;;;;;;;;;;;;;;;8.59;72.74;102822.97;5050351;28;20398;-81
2022/12/31 08:04:45;;;;;;;;;;;;;;;8.62;72.76;102820.66;5066922;28;20301;-81
2022/12/31 08:07:15;;;;;;;;;;;;;;;8.63;72.76;102818.97;5072104;28;19955;-81
2022/12/31 08:09:40;;;;;;;;;;;;;;;8.62;72.70;102828.47;5067284;28;20321;-82
2022/12/31 08:12:06;;;;;;;;;;;;;;;8.59;72.67;102830.78;5065284;28;19920;-85
2022/12/31 08:14:41;;;;;;;;;;;;;;;8.62;72.66;102824.97;5098610;28;19921;-81
2022/12/31 08:17:08;;;;;;;;;;;;;;;8.62;72.71;102830.19;5066045;28;19927;-82
2022/12/31 08:19:33;;;;;;;;;;;;;;;8.64;72.70;102837.34;5115203;28;19991;-82
2022/12/31 08:22:03;;;;;;;;;;;;;;;8.62;72.64;102824.97;5073887;28;19916;-82
2022/12/31 08:24:28;;;;;;;;;;;;;;;8.64;72.73;102831.25;5107410;28;20382;-82
2022/12/31 08:27:14;;;;;;;;;;;;;;;8.63;72.47;102832.00;5061440;28;19921;-82
2022/12/31 08:29:42;;;;;;;;;;;;;;;8.62;72.92;102825.88;5039543;28;20306;-81
2022/12/31 08:32:28;;;;;;;;;;;;;;;8.64;72.44;102821.72;5059221;28;19939;-81
2022/12/31 08:35:06;;;;;;;;;;;;;;;8.62;72.67;102824.97;5079971;28;19977;-83
2022/12/31 08:37:35;;;;;;;;;;;;;;;8.59;72.84;102822.97;5050144;28;19921;-83
2022/12/31 08:40:19;;;;;;;;;;;;;;;8.61;72.62;102823.13;5062981;28;19927;-82
2022/12/31 08:42:48;;;;;;;;;;;;;;;8.66;72.61;102828.00;5049276;28;20035;-82
2022/12/31 08:45:19;;;;;;;;;;;;;;;8.65;72.66;102820.94;5062161;28;19985;-83
2022/12/31 08:47:46;;;;;;;;;;;;;;;8.65;72.76;102817.44;5079193;28;20298;-83
2022/12/31 08:50:12;;;;;;;;;;;;;;;8.68;72.42;102818.66;5104800;28;20691;-83
2022/12/31 08:52:38;;;;;;;;;;;;;;;8.67;72.70;102810.69;5104874;28;19963;-84
2022/12/31 08:55:04;;;;;;;;;;;;;;;8.65;72.67;102807.00;5061510;28;19955;-83
2022/12/31 08:57:41;;;;;;;;;;;;;;;8.72;72.52;102812.00;5084368;28;20386;-83
2022/12/31 09:00:10;;;;;;;;;;;;;;;8.66;72.65;102816.69;5078335;28;20007;-84
2022/12/31 09:02:51;;;;;;;;;;;;;;;8.63;72.57;102814.66;5077039;28;19925;-84
2022/12/31 09:05:22;;;;;;;;;;;;;;;8.58;72.93;102810.72;5051913;28;20373;-84
2022/12/31 09:08:07;;;;;;;;;;;;;;;8.61;72.94;102810.09;5057385;28;19923;-84
2022/12/31 09:10:42;;;;;;;;;;;;;;;8.61;72.76;102804.88;5069378;28;20415;-82
2022/12/31 09:13:14;;;;;;;;;;;;;;;8.53;72.91;102806.78;5053041;28;19921;-83
2022/12/31 09:15:46;;;;;;;;;;;;;;;8.55;72.90;102800.94;5058744;28;19921;-82
2022/12/31 09:18:12;;;;;;;;;;;;;;;8.48;73.38;102805.41;5081060;28;20318;-81
2022/12/31 09:20:37;;;;;;;;;;;;;;;8.47;73.33;102798.38;5102591;28;19924;-82
2022/12/31 09:23:03;;;;;;;;;;;;;;;8.43;73.37;102796.25;5071386;28;19923;-82
2022/12/31 09:25:29;;;;;;;;;;;;;;;8.42;73.52;102790.09;5058061;28;19920;-82
2022/12/31 09:28:00;;;;;;;;;;;;;;;8.41;73.57;102777.88;5058637;28;20436;-82
2022/12/31 09:30:27;;;;;;;;;;;;;;;8.43;73.55;102786.75;5064922;28;20394;-82
2022/12/31 09:33:06;;;;;;;;;;;;;;;8.41;73.52;102783.09;5049847;28;19928;-82
2022/12/31 09:35:46;;;;;;;;;;;;;;;8.41;73.81;102785.69;5089395;28;19943;-83
2022/12/31 09:38:14;;;;;;;;;;;;;;;8.42;73.60;102790.09;5103246;28;20005;-82
2022/12/31 09:41:15;;;;;;;;;;;;;;;8.41;73.90;102785.69;5061268;28;20530;-81
2022/12/31 09:43:59;;;;;;;;;;;;;;;8.40;73.90;102776.00;5046689;28;20391;-81
2022/12/31 09:46:30;;;;;;;;;;;;;;;8.42;73.96;102784.00;5053802;28;19920;-82
2022/12/31 09:49:05;;;;;;;;;;;;;;;8.44;73.76;102775.56;5069918;28;20420;-82
2022/12/31 09:51:31;;;;;;;;;;;;;;;8.41;74.11;102774.38;5066480;28;19924;-82
2022/12/31 09:54:05;;;;;;;;;;;;;;;8.40;74.16;102770.78;5102385;28;20378;-82
2022/12/31 09:56:33;;;;;;;;;;;;;;;8.45;73.78;102760.88;5057797;28;19920;-82
2022/12/31 09:59:06;;;;;;;;;;;;;;;8.42;73.98;102761.47;5061069;28;19916;-83
2022/12/31 10:01:34;;;;;;;;;;;;;;;8.42;73.87;102758.88;5090278;28;19952;-81
2022/12/31 10:04:00;;;;;;;;;;;;;;;8.41;74.16;102756.13;5059826;28;20433;-81
2022/12/31 10:06:25;;;;;;;;;;;;;;;8.42;74.08;102748.44;5049581;28;19929;-81
2022/12/31 10:08:55;;;;;;;;;;;;;;;8.41;74.15;102751.84;5071353;28;20394;-82
2022/12/31 10:11:27;;;;;;;;;;;;;;;8.42;73.98;102744.94;5093428;28;20156;-82
2022/12/31 10:13:52;;;;;;;;;;;;;;;8.40;74.09;102736.03;5071043;28;19967;-81
2022/12/31 10:16:33;;;;;;;;;;;;;;;8.44;74.26;102743.41;5057154;28;19955;-81
2022/12/31 10:19:17;;;;;;;;;;;;;;;8.39;74.30;102745.53;5064842;28;19916;-83
2022/12/31 10:22:04;;;;;;;;;;;;;;;8.51;73.96;102727.59;5044673;28;19920;-82
2022/12/31 10:24:44;;;;;;;;;;;;;;;8.47;74.16;102723.78;5056748;28;19952;-82
2022/12/31 10:27:16;;;;;;;;;;;;;;;8.45;74.16;102729.63;5057831;28;19928;-83
2022/12/31 10:29:42;;;;;;;;;;;;;;;8.43;74.16;102726.88;5063002;28;19920;-82
2022/12/31 10:32:07;;;;;;;;;;;;;;;8.43;74.09;102724.25;5058599;28;19917;-82
2022/12/31 10:34:51;;;;;;;;;;;;;;;8.48;74.02;102720.38;5058141;28;19999;-82
2022/12/31 10:37:17;;;;;;;;;;;;;;;8.44;74.19;102719.97;5048863;28;20300;-85
2022/12/31 10:39:43;;;;;;;;;;;;;;;8.43;74.17;102724.25;5073193;28;20309;-82
2022/12/31 10:42:11;;;;;;;;;;;;;;;8.45;74.45;102722.72;5066445;28;19923;-83
2022/12/31 10:44:47;;;;;;;;;;;;;;;8.43;74.25;102721.66;5063499;28;19921;-82
2022/12/31 10:47:13;;;;;;;;;;;;;;;8.42;74.61;102725.03;5080617;28;19928;-83
2022/12/31 10:49:41;;;;;;;;;;;;;;;8.44;74.34;102717.38;5068223;28;19921;-82
2022/12/31 10:52:12;;;;;;;;;;;;;;;8.44;74.48;102717.38;5068048;28;20408;-82
2022/12/31 10:54:38;;;;;;;;;;;;;;;8.44;74.27;102717.38;5067599;28;20440;-83
2022/12/31 10:57:15;;;;;;;;;;;;;;;8.46;74.31;102714.13;5066813;28;19917;-84
2022/12/31 11:00:01;;;;;;;;;;;;;;;8.47;74.35;102712.47;5045872;28;19929;-85
2022/12/31 11:02:35;;;;;;;;;;;;;;;8.50;74.31;102708.44;5081880;28;19920;-85
2022/12/31 11:05:00;;;;;;;;;;;;;;;8.47;74.28;102708.16;5079803;28;19919;-84
2022/12/31 11:07:40;;;;;;;;;;;;;;;8.48;74.17;102703.84;5073078;28;19924;-84
2022/12/31 11:10:11;;;;;;;;;;;;;;;8.45;74.41;102699.28;5074761;28;19929;-82
2022/12/31 11:12:37;;;;;;;;;;;;;;;8.46;74.44;102695.91;5055717;28;19921;-82
2022/12/31 11:15:02;;;;;;;;;;;;;;;8.47;74.20;102695.16;5074080;28;20015;-82
2022/12/31 11:17:46;;;;;;;;;;;;;;;8.52;74.20;102688.66;5059199;28;19955;-83
2022/12/31 11:20:27;;;;;;;;;;;;;;;8.53;74.29;102692.19;5068167;28;20019;-84
2022/12/31 11:22:55;;;;;;;;;;;;;;;8.50;74.31;102692.81;5045611;28;20400;-84
2022/12/31 11:25:38;;;;;;;;;;;;;;;8.51;74.36;102691.16;5050697;28;20456;-84
2022/12/31 11:28:17;;;;;;;;;;;;;;;8.53;74.23;102690.50;5068247;28;20570;-84
2022/12/31 11:30:45;;;;;;;;;;;;;;;8.52;74.27;102690.34;5106307;28;19917;-84
2022/12/31 11:33:29;;;;;;;;;;;;;;;8.54;74.43;102691.41;5073795;28;19952;-84
2022/12/31 11:36:00;;;;;;;;;;;;;;;8.52;74.47;102683.44;5048357;28;19916;-85
2022/12/31 11:38:37;;;;;;;;;;;;;;;8.55;74.14;102680.22;5055417;28;19935;-84
2022/12/31 11:41:06;;;;;;;;;;;;;;;8.58;74.22;102683.13;5053086;28;19925;-84
2022/12/31 11:43:37;;;;;;;;;;;;;;;8.62;74.14;102682.63;5067707;28;19939;-83
2022/12/31 11:46:15;;;;;;;;;;;;;;;8.61;74.26;102680.78;5106055;28;19923;-84
2022/12/31 11:48:40;;;;;;;;;;;;;;;8.57;74.48;102681.25;5069389;28;19925;-83
2022/12/31 11:51:24;;;;;;;;;;;;;;;8.59;74.16;102682.31;5062996;28;19920;-84
2022/12/31 11:54:08;;;;;;;;;;;;;;;8.61;74.04;102682.47;5063807;28;20406;-83
2022/12/31 11:56:37;;;;;;;;;;;;;;;8.62;74.21;102685.22;5070185;28;19927;-82
2022/12/31 11:59:05;;;;;;;;;;;;;;;8.65;74.09;102692.41;5075219;28;19982;-83
2022/12/31 12:01:32;;;;;;;;;;;;;;;8.68;74.14;102678.00;5083006;28;20459;-84
2022/12/31 12:03:58;;;;;;;;;;;;;;;8.66;74.21;102683.84;5105849;28;19959;-84
2022/12/31 12:06:30;;;;;;;;;;;;;;;8.72;73.98;102685.31;5085766;28;19995;-83
2022/12/31 12:08:56;;;;;;;;;;;;;;;8.83;73.60;102686.28;5066543;28;19929;-84
2022/12/31 12:11:25;;;;;;;;;;;;;;;8.86;73.24;102680.44;5064620;28;19973;-83
2022/12/31 12:13:51;;;;;;;;;;;;;;;8.89;73.04;102683.31;5062058;28;19920;-84
2022/12/31 12:16:16;;;;;;;;;;;;;;;8.82;73.44;102678.34;5058048;28;20394;-83
2022/12/31 12:18:45;;;;;;;;;;;;;;;8.78;73.61;102679.72;5097603;28;19927;-81
2022/12/31 12:21:19;;;;;;;;;;;;;;;8.78;73.83;102684.94;5067142;28;19925;-84
2022/12/31 12:23:57;;;;;;;;;;;;;;;8.79;73.90;102684.19;5107675;28;19921;-83
2022/12/31 12:26:31;;;;;;;;;;;;;;;8.78;73.97;102687.53;5062001;28;19978;-82
2022/12/31 12:29:09;;;;;;;;;;;;;;;8.79;74.03;102685.88;5082263;28;19960;-84
2022/12/31 12:31:34;;;;;;;;;;;;;;;8.78;73.96;102684.94;5047366;28;19921;-83
2022/12/31 12:34:00;;;;;;;;;;;;;;;8.83;73.58;102683.69;5053455;28;19924;-82
2022/12/31 12:36:25;;;;;;;;;;;;;;;8.85;73.59;102678.63;5069120;28;20324;-83
2022/12/31 12:39:04;;;;;;;;;;;;;;;8.84;73.76;102682.00;5096619;28;19944;-82
2022/12/31 12:41:29;;;;;;;;;;;;;;;8.84;73.67;102677.69;5093930;28;19921;-84
2022/12/31 12:44:02;;;;;;;;;;;;;;;8.91;73.38;102674.91;5053955;28;20343;-86
2022/12/31 12:46:32;;;;;;;;;;;;;;;8.88;73.52;102679.81;5104610;28;19916;-83
2022/12/31 12:48:57;;;;;;;;;;;;;;;8.90;73.36;102685.16;5104284;28;19916;-83
2022/12/31 12:51:42;;;;;;;;;;;;;;;8.91;73.46;102689.59;5103600;28;20408;-83
2022/12/31 12:54:11;;;;;;;;;;;;;;;8.91;73.65;102684.38;5102250;28;20003;-84
2022/12/31 12:56:52;;;;;;;;;;;;;;;8.93;73.42;102678.56;5066007;28;19924;-84
2022/12/31 12:59:24;;;;;;;;;;;;;;;8.95;73.28;102686.50;5104102;28;19976;-82
2022/12/31 13:02:02;;;;;;;;;;;;;;;8.97;73.49;102692.75;5070409;28;19920;-82